Terminal Aerodrome Forecast
Issued by NWS Grand Rapids, MI

Home | Current Version | Previous Version | Text Only | Print | Product List | Glossary On
Versions: 1 2 3 4 5 6 7 8 9 10 11 12 13 14 15 16 17 18 19 20 21 22 23 24 25 26 27
000
FTUS43 KGRR 261807 AAA
TAFGRR
TAF AMD
KGRR 261807Z 2618/2718 19016G27KT P6SM -SN FEW040 BKN050 OVC080
     FM261900 22024G38KT P6SM BKN080
     FM270000 23012KT P6SM BKN040
     FM270600 20003KT P6SM SKC
     FM271500 16006KT P6SM SKC=

USA.gov is the U.S. government's official web portal to all federal, state and local government web resources and services.